createdAt,value
2018-12-14T00:00:15.823Z,95458.73
2018-12-14T00:02:50.410Z,95447.49
2018-12-14T00:05:25.347Z,95454.45
2018-12-14T00:07:59.662Z,95452.41
2018-12-14T00:10:34.205Z,95453.45
2018-12-14T00:13:08.730Z,95463.70
2018-12-14T00:15:43.600Z,95459.84
2018-12-14T00:18:18.013Z,95460.10
2018-12-14T00:20:52.740Z,95458.72
2018-12-14T00:23:27.535Z,95452.80
2018-12-14T00:26:02.563Z,95460.30
2018-12-14T00:31:34.375Z,95453.18
2018-12-14T00:34:08.830Z,95457.91
2018-12-14T00:39:22.231Z,95460.88
2018-12-14T00:41:56.962Z,95465.67
2018-12-14T00:44:31.420Z,95464.86
2018-12-14T00:47:05.749Z,95465.91
2018-12-14T00:49:41.003Z,95466.13
2018-12-14T00:52:15.735Z,95463.38
2018-12-14T00:54:50.371Z,95465.78
2018-12-14T00:57:24.954Z,95469.80
2018-12-14T00:59:59.433Z,95467.94
2018-12-14T01:02:33.762Z,95475.38
2018-12-14T01:05:08.853Z,95476.76
2018-12-14T01:07:43.847Z,95471.37
2018-12-14T01:10:18.824Z,95474.72
2018-12-14T01:12:53.391Z,95476.58
2018-12-14T01:15:27.938Z,95475.66
2018-12-14T01:18:02.482Z,95482.56
2018-12-14T01:20:37.967Z,95480.91
2018-12-14T01:23:12.474Z,95485.15
2018-12-14T01:25:47.479Z,95479.24
2018-12-14T01:28:22.716Z,95482.67
2018-12-14T01:30:57.095Z,95485.45
2018-12-14T01:36:31.095Z,95491.64
2018-12-14T01:39:07.742Z,95488.17
2018-12-14T01:41:42.769Z,95489.10
2018-12-14T01:44:17.318Z,95484.12
2018-12-14T01:46:52.126Z,95493.62
2018-12-14T01:49:27.254Z,95487.30
2018-12-14T01:52:02.154Z,95494.67
2018-12-14T01:54:37.034Z,95491.47
2018-12-14T01:57:11.710Z,95493.73
2018-12-14T01:59:46.578Z,95500.00
2018-12-14T02:02:21.304Z,95494.14
2018-12-14T02:04:55.650Z,95486.95
2018-12-14T02:07:30.530Z,95494.03
2018-12-14T02:10:06.115Z,95491.52
2018-12-14T02:12:40.751Z,95496.73
2018-12-14T02:15:15.660Z,95495.20
2018-12-14T02:17:50.558Z,95489.84
2018-12-14T02:20:25.086Z,95478.80
2018-12-14T02:22:59.571Z,95479.14
2018-12-14T02:25:34.767Z,95481.11
2018-12-14T02:28:09.505Z,95476.12
2018-12-14T02:30:46.085Z,95477.34
2018-12-14T02:33:21.297Z,95472.54
2018-12-14T02:35:56.778Z,95471.95
2018-12-14T02:38:31.567Z,95471.61
2018-12-14T02:41:06.707Z,95475.00
2018-12-14T02:43:41.612Z,95473.50
2018-12-14T02:46:16.572Z,95472.47
2018-12-14T02:48:51.440Z,95472.48
2018-12-14T02:51:25.946Z,95476.12
2018-12-14T02:54:00.901Z,95475.36
2018-12-14T02:56:35.368Z,95474.91
2018-12-14T02:59:09.879Z,95473.53
2018-12-14T03:01:45.641Z,95476.24
2018-12-14T03:04:20.149Z,95475.88
2018-12-14T03:06:55.116Z,95484.28
2018-12-14T03:09:29.503Z,95489.44
2018-12-14T03:12:04.907Z,95485.08
2018-12-14T03:14:39.528Z,95479.92
2018-12-14T03:17:14.291Z,95478.48
2018-12-14T03:19:49.609Z,95478.61
2018-12-14T03:22:25.197Z,95480.99
2018-12-14T03:24:59.714Z,95482.26
2018-12-14T03:27:34.428Z,95489.28
2018-12-14T03:30:10.245Z,95482.83
2018-12-14T03:32:44.836Z,95477.97
2018-12-14T03:35:19.791Z,95490.90
2018-12-14T03:37:54.847Z,95494.86
2018-12-14T03:40:29.368Z,95495.58
2018-12-14T03:43:04.227Z,95501.77
2018-12-14T03:45:39.482Z,95503.69
2018-12-14T03:48:14.142Z,95504.20
2018-12-14T03:50:48.656Z,95507.62
2018-12-14T03:53:23.441Z,95506.59
2018-12-14T03:55:57.944Z,95502.92
2018-12-14T03:58:32.690Z,95503.58
2018-12-14T04:01:07.175Z,95506.83
2018-12-14T04:03:42.515Z,95512.03
2018-12-14T04:06:17.305Z,95509.97
2018-12-14T04:08:51.851Z,95508.28
2018-12-14T04:11:27.011Z,95510.48
2018-12-14T04:14:01.586Z,95513.86
2018-12-14T04:16:35.858Z,95510.92
2018-12-14T04:19:11.102Z,95510.11
2018-12-14T04:21:45.616Z,95515.58
2018-12-14T04:24:20.382Z,95518.66
2018-12-14T04:26:55.441Z,95512.63
2018-12-14T04:29:30.142Z,95524.63
2018-12-14T04:32:05.564Z,95522.33
2018-12-14T04:34:40.262Z,95524.28
2018-12-14T04:37:14.799Z,95531.00
2018-12-14T04:39:49.527Z,95530.59
2018-12-14T04:42:25.465Z,95528.94
2018-12-14T04:45:00.200Z,95532.73
2018-12-14T04:47:35.024Z,95534.06
2018-12-14T04:50:10.532Z,95540.30
2018-12-14T04:52:45.466Z,95541.55
2018-12-14T04:55:20.557Z,95539.05
2018-12-14T04:57:55.098Z,95543.20
2018-12-14T05:00:29.893Z,95538.53
2018-12-14T05:03:04.841Z,95543.69
2018-12-14T05:05:39.224Z,95544.66
2018-12-14T05:08:13.510Z,95543.77
2018-12-14T05:10:48.358Z,95548.89
2018-12-14T05:13:22.978Z,95555.96
2018-12-14T05:15:57.524Z,95554.77
2018-12-14T05:18:32.471Z,95555.20
2018-12-14T05:21:07.614Z,95557.32
2018-12-14T05:23:42.354Z,95559.32
2018-12-14T05:26:17.110Z,95554.11
2018-12-14T05:28:51.638Z,95555.39
2018-12-14T05:31:26.663Z,95558.33
2018-12-14T05:34:01.644Z,95548.69
2018-12-14T05:36:37.162Z,95553.56
2018-12-14T05:39:11.755Z,95570.30
2018-12-14T05:41:46.302Z,95575.18
2018-12-14T05:44:21.095Z,95571.33
2018-12-14T05:46:56.396Z,95569.09
2018-12-14T05:49:31.686Z,95566.45
2018-12-14T05:52:06.322Z,95576.52
2018-12-14T05:54:40.729Z,95578.68
2018-12-14T05:57:17.516Z,95577.65
2018-12-14T05:59:52.388Z,95574.55
2018-12-14T06:02:27.134Z,95570.56
2018-12-14T06:05:01.681Z,95570.45
2018-12-14T06:07:36.795Z,95574.64
2018-12-14T06:10:11.480Z,95579.09
2018-12-14T06:12:46.204Z,95580.84
2018-12-14T06:15:20.990Z,95574.24
2018-12-14T06:17:55.706Z,95579.94
2018-12-14T06:20:30.406Z,95572.73
2018-12-14T06:23:04.926Z,95569.66
2018-12-14T06:25:39.670Z,95583.09
2018-12-14T06:28:14.666Z,95586.45
2018-12-14T06:30:49.213Z,95585.88
2018-12-14T06:33:24.195Z,95590.16
2018-12-14T06:35:59.463Z,95600.23
2018-12-14T06:38:34.026Z,95591.56
2018-12-14T06:41:09.198Z,95594.63
2018-12-14T06:43:43.559Z,95595.35
2018-12-14T06:46:17.926Z,95589.23
2018-12-14T06:48:52.519Z,95592.98
2018-12-14T06:51:27.236Z,95597.90
2018-12-14T06:54:01.738Z,95597.49
2018-12-14T06:56:36.293Z,95597.03
2018-12-14T06:59:11.286Z,95595.72
2018-12-14T07:01:46.252Z,95602.67
2018-12-14T07:04:21.138Z,95607.45
2018-12-14T07:06:55.814Z,95602.27
2018-12-14T07:09:30.277Z,95598.10
2018-12-14T07:12:05.872Z,95604.81
2018-12-14T07:14:40.589Z,95613.66
2018-12-14T07:17:15.088Z,95605.25
2018-12-14T07:19:49.717Z,95614.74
2018-12-14T07:22:24.515Z,95612.30
2018-12-14T07:25:01.431Z,95618.13
2018-12-14T07:27:35.722Z,95616.72
2018-12-14T07:30:11.275Z,95620.94
2018-12-14T07:32:45.650Z,95613.69
2018-12-14T07:35:20.096Z,95617.42
2018-12-14T07:37:54.554Z,95618.32
2018-12-14T07:40:29.626Z,95621.77
2018-12-14T07:43:04.406Z,95618.45
2018-12-14T07:45:38.986Z,95626.42
2018-12-14T07:48:13.511Z,95634.53
2018-12-14T07:50:48.512Z,95638.63
2018-12-14T07:53:23.235Z,95637.14
2018-12-14T07:55:58.070Z,95635.70
2018-12-14T07:58:33.071Z,95640.25
2018-12-14T08:01:08.417Z,95646.00
2018-12-14T08:03:42.742Z,95644.16
2018-12-14T08:06:17.694Z,95644.41
2018-12-14T08:08:52.578Z,95642.16
2018-12-14T08:11:27.584Z,95648.69
2018-12-14T08:14:02.114Z,95651.08
2018-12-14T08:16:36.869Z,95653.03
2018-12-14T08:19:11.456Z,95656.94
2018-12-14T08:21:46.519Z,95660.47
2018-12-14T08:24:20.850Z,95661.88
2018-12-14T08:26:55.349Z,95665.29
2018-12-14T08:29:29.857Z,95665.62
2018-12-14T08:32:04.826Z,95662.15
2018-12-14T08:34:39.694Z,95662.04
2018-12-14T08:37:15.162Z,95665.54
2018-12-14T08:39:50.105Z,95670.88
2018-12-14T08:42:24.670Z,95674.66
2018-12-14T08:44:59.594Z,95682.55
2018-12-14T08:47:34.637Z,95683.95
2018-12-14T08:50:10.254Z,95679.29
2018-12-14T08:52:45.386Z,95682.78
2018-12-14T08:55:20.063Z,95688.33
2018-12-14T08:57:54.410Z,95682.49
2018-12-14T09:00:29.657Z,95683.42
2018-12-14T09:03:04.324Z,95694.80
2018-12-14T09:05:38.690Z,95691.72
2018-12-14T09:08:13.220Z,95701.66
2018-12-14T09:10:47.838Z,95704.03
2018-12-14T09:13:22.618Z,95702.88
2018-12-14T09:15:57.526Z,95707.11
2018-12-14T09:18:32.154Z,95702.47
2018-12-14T09:21:07.254Z,95706.08
2018-12-14T09:23:41.755Z,95707.80
2018-12-14T09:26:16.619Z,95713.66
2018-12-14T09:28:51.230Z,95712.91
2018-12-14T09:31:25.947Z,95713.12
2018-12-14T09:34:00.606Z,95712.52
2018-12-14T09:36:35.589Z,95710.71
2018-12-14T09:39:10.386Z,95709.89
2018-12-14T09:41:45.494Z,95712.52
2018-12-14T09:44:20.231Z,95713.36
2018-12-14T09:46:54.867Z,95711.23
2018-12-14T09:49:29.651Z,95712.04
2018-12-14T09:52:04.586Z,95723.81
2018-12-14T09:54:39.106Z,95717.52
2018-12-14T09:57:14.396Z,95716.45
2018-12-14T09:59:49.271Z,95719.81
2018-12-14T10:02:23.610Z,95721.23
2018-12-14T10:04:58.107Z,95723.56
2018-12-14T10:07:32.942Z,95715.55
2018-12-14T10:10:09.650Z,95716.48
2018-12-14T10:12:44.174Z,95724.62
2018-12-14T10:15:18.930Z,95721.30
2018-12-14T10:17:53.361Z,95720.84
2018-12-14T10:20:28.150Z,95718.26
2018-12-14T10:23:02.867Z,95719.02
2018-12-14T10:25:37.739Z,95720.05
2018-12-14T10:28:12.102Z,95721.88
2018-12-14T10:30:46.758Z,95725.72
2018-12-14T10:33:21.411Z,95728.91
2018-12-14T10:35:56.365Z,95722.73
2018-12-14T10:38:30.841Z,95723.52
2018-12-14T10:41:05.997Z,95725.20
2018-12-14T10:43:40.394Z,95718.09
2018-12-14T10:46:14.785Z,95717.02
2018-12-14T10:48:49.230Z,95721.43
2018-12-14T10:51:23.951Z,95722.02
2018-12-14T10:53:58.636Z,95727.92
2018-12-14T10:56:33.730Z,95727.84
2018-12-14T10:59:08.889Z,95735.48
2018-12-14T11:01:49.071Z,95727.11
2018-12-14T11:04:24.896Z,95734.22
2018-12-14T11:07:00.011Z,95731.05
2018-12-14T11:09:34.691Z,95735.36
2018-12-14T11:12:09.583Z,95734.35
2018-12-14T11:14:44.038Z,95733.31
2018-12-14T11:17:18.482Z,95734.34
2018-12-14T11:19:53.415Z,95730.12
2018-12-14T11:22:28.495Z,95732.70
2018-12-14T11:25:03.540Z,95730.70
2018-12-14T11:27:38.311Z,95738.60
2018-12-14T11:30:13.645Z,95731.04
2018-12-14T11:32:48.004Z,95733.31
2018-12-14T11:35:22.927Z,95731.28
2018-12-14T11:37:57.367Z,95733.73
2018-12-14T11:40:32.693Z,95733.42
2018-12-14T11:43:07.798Z,95736.27
2018-12-14T11:45:42.685Z,95729.90
2018-12-14T11:48:17.637Z,95730.93
2018-12-14T11:50:52.070Z,95728.16
2018-12-14T11:53:26.995Z,95724.20
2018-12-14T11:56:02.309Z,95725.61
2018-12-14T11:58:58.894Z,95725.44
2018-12-14T12:01:33.979Z,95726.96
2018-12-14T12:04:10.399Z,95726.25
2018-12-14T12:06:51.180Z,95724.09
2018-12-14T12:12:22.939Z,95720.91
2018-12-14T12:14:57.290Z,95725.98
2018-12-14T12:17:35.108Z,95720.78
2018-12-14T12:20:10.183Z,95719.67
2018-12-14T12:25:55.029Z,95722.84
2018-12-14T12:28:37.728Z,95722.91
2018-12-14T12:31:16.083Z,95717.87
2018-12-14T12:33:54.343Z,95716.14
2018-12-14T12:36:35.082Z,95712.19
2018-12-14T12:39:33.684Z,95717.06
2018-12-14T12:42:11.682Z,95715.89
2018-12-14T12:50:42.421Z,95723.35
2018-12-14T12:53:38.027Z,95717.63
2018-12-14T12:56:22.265Z,95715.65
2018-12-14T12:59:12.043Z,95713.55
2018-12-14T13:01:51.294Z,95712.13
2018-12-14T13:04:33.917Z,95712.24
2018-12-14T13:07:18.114Z,95712.59
2018-12-14T13:09:58.124Z,95714.34
2018-12-14T13:12:38.039Z,95718.20
2018-12-14T13:15:14.695Z,95719.70
2018-12-14T13:17:58.174Z,95720.19
2018-12-14T13:20:46.819Z,95726.67
2018-12-14T13:23:28.890Z,95722.81
2018-12-14T13:26:14.205Z,95721.76
2018-12-14T13:28:52.568Z,95727.59
2018-12-14T13:40:19.225Z,95740.39
2018-12-14T13:42:55.123Z,95745.95
2018-12-14T13:45:36.066Z,95750.92
2018-12-14T13:48:16.935Z,95755.67
2018-12-14T13:50:57.581Z,95756.80
2018-12-14T13:56:28.633Z,95760.17
2018-12-14T13:59:05.158Z,95759.62
2018-12-14T14:01:54.579Z,95765.18
2018-12-14T14:04:31.426Z,95766.56
2018-12-14T14:07:09.409Z,95765.78
2018-12-14T14:09:44.519Z,95769.06
2018-12-14T14:12:37.636Z,95775.49
2018-12-14T14:15:12.878Z,95774.47
2018-12-14T14:17:59.906Z,95774.12
2018-12-14T14:20:34.952Z,95782.05
2018-12-14T14:23:13.270Z,95782.23
2018-12-14T14:25:51.603Z,95783.02
2018-12-14T14:28:26.739Z,95788.97
2018-12-14T14:31:02.151Z,95785.80
2018-12-14T14:33:36.836Z,95791.34
2018-12-14T14:36:32.080Z,95789.39
2018-12-14T14:39:14.447Z,95795.20
2018-12-14T14:41:58.823Z,95799.48
2018-12-14T14:44:39.405Z,95798.03
2018-12-14T14:47:26.836Z,95798.64
2018-12-14T14:52:58.019Z,95805.26
2018-12-14T14:58:25.003Z,95801.47
2018-12-14T15:03:58.342Z,95809.30
2018-12-14T15:06:33.163Z,95813.27
2018-12-14T15:09:14.014Z,95819.67
2018-12-14T15:11:48.531Z,95814.71
2018-12-14T15:14:23.027Z,95817.70
2018-12-14T15:17:11.123Z,95817.55
2018-12-14T15:19:45.910Z,95827.45
2018-12-14T15:22:21.074Z,95832.16
2018-12-14T15:24:55.655Z,95836.66
2018-12-14T15:27:30.726Z,95839.84
2018-12-14T15:30:06.611Z,95843.73
2018-12-14T15:32:41.017Z,95834.61
2018-12-14T15:38:11.896Z,95841.33
2018-12-14T15:40:46.505Z,95850.42
2018-12-14T15:43:21.019Z,95856.25
2018-12-14T15:45:55.436Z,95854.38
2018-12-14T15:48:30.137Z,95858.34
2018-12-14T15:51:05.099Z,95863.14
2018-12-14T15:53:39.861Z,95865.55
2018-12-14T15:56:16.567Z,95869.48
2018-12-14T15:58:51.712Z,95866.05
2018-12-14T16:01:26.863Z,95868.34
2018-12-14T16:04:01.967Z,95864.52
2018-12-14T16:06:36.504Z,95866.27
2018-12-14T16:12:07.519Z,95873.53
2018-12-14T16:14:51.765Z,95879.77
2018-12-14T16:20:23.659Z,95878.03
2018-12-14T16:22:58.303Z,95885.83
2018-12-14T16:25:36.399Z,95877.48
2018-12-14T16:28:17.975Z,95878.70
2018-12-14T16:30:52.951Z,95888.27
2018-12-14T16:33:27.403Z,95884.72
2018-12-14T16:36:02.018Z,95890.09
2018-12-14T16:38:37.027Z,95894.44
2018-12-14T16:41:12.103Z,95895.44
2018-12-14T16:43:46.651Z,95895.28
2018-12-14T16:46:21.459Z,95896.81
2018-12-14T16:48:55.943Z,95896.09
2018-12-14T16:51:30.719Z,95896.45
2018-12-14T16:54:07.149Z,95901.48
2018-12-14T16:56:41.934Z,95903.47
2018-12-14T16:59:16.867Z,95908.98
2018-12-14T17:02:07.819Z,95910.81
2018-12-14T17:04:42.999Z,95907.67
2018-12-14T17:07:18.591Z,95914.48
2018-12-14T17:09:52.979Z,95916.94
2018-12-14T17:12:27.952Z,95920.28
2018-12-14T17:15:02.923Z,95914.31
2018-12-14T17:17:37.915Z,95927.15
2018-12-14T17:20:12.715Z,95924.85
2018-12-14T17:22:47.239Z,95925.45
2018-12-14T17:25:22.425Z,95919.77
2018-12-14T17:27:56.771Z,95926.70
2018-12-14T17:30:31.707Z,95928.41
2018-12-14T17:33:06.996Z,95928.39
2018-12-14T17:35:42.240Z,95937.80
2018-12-14T17:38:16.528Z,95937.03
2018-12-14T17:40:51.182Z,95941.80
2018-12-14T17:43:25.874Z,95941.90
2018-12-14T17:46:00.499Z,95944.25
2018-12-14T17:48:37.786Z,95948.41
2018-12-14T17:51:13.023Z,95948.66
2018-12-14T17:53:47.450Z,95946.47
2018-12-14T17:56:22.190Z,95951.36
2018-12-14T17:58:56.688Z,95954.16
2018-12-14T18:01:31.715Z,95958.40
2018-12-14T18:04:06.255Z,95957.68
2018-12-14T18:06:40.904Z,95958.72
2018-12-14T18:09:15.549Z,95962.17
2018-12-14T18:11:49.956Z,95962.06
2018-12-14T18:14:24.612Z,95966.30
2018-12-14T18:16:59.780Z,95962.77
2018-12-14T18:19:35.163Z,95966.09
2018-12-14T18:22:09.633Z,95962.30
2018-12-14T18:24:45.797Z,95966.13
2018-12-14T18:27:20.762Z,95967.17
2018-12-14T18:32:57.827Z,95967.42
2018-12-14T18:35:37.393Z,95972.11
2018-12-14T18:38:27.203Z,95967.56
2018-12-14T18:41:02.811Z,95974.34
2018-12-14T18:43:37.650Z,95976.19
2018-12-14T18:46:13.570Z,95977.54
2018-12-14T18:48:48.777Z,95977.30
2018-12-14T18:51:25.894Z,95976.44
2018-12-14T18:54:00.907Z,95975.04
2018-12-14T18:56:35.798Z,95976.47
2018-12-14T18:59:10.370Z,95979.88
2018-12-14T19:01:44.983Z,95985.52
2018-12-14T19:04:21.463Z,95994.38
2018-12-14T19:06:56.434Z,95998.05
2018-12-14T19:09:32.677Z,95994.27
2018-12-14T19:12:07.098Z,95998.37
2018-12-14T19:17:46.223Z,95999.63
2018-12-14T19:20:20.702Z,96003.38
2018-12-14T19:22:58.822Z,96005.97
2018-12-14T19:25:33.534Z,96007.70
2018-12-14T19:28:22.214Z,96009.23
2018-12-14T19:30:57.294Z,96010.41
2018-12-14T19:39:25.662Z,96021.38
2018-12-14T19:42:02.919Z,96022.59
2018-12-14T19:44:40.202Z,96028.83
2018-12-14T19:47:15.357Z,96032.23
2018-12-14T19:49:52.421Z,96031.63
2018-12-14T19:52:27.392Z,96034.69
2018-12-14T19:55:02.634Z,96037.18
2018-12-14T19:57:38.117Z,96047.73
2018-12-14T20:00:13.914Z,96049.59
2018-12-14T20:02:48.566Z,96054.17
2018-12-14T20:08:38.211Z,96058.09
2018-12-14T20:11:12.927Z,96057.08
2018-12-14T20:13:57.430Z,96059.06
2018-12-14T20:16:34.712Z,96056.41
2018-12-14T20:19:09.264Z,96057.03
2018-12-14T20:21:43.627Z,96049.32
2018-12-14T20:24:19.594Z,96051.21
2018-12-14T20:26:54.230Z,96053.05
2018-12-14T20:29:29.284Z,96051.73
2018-12-14T20:35:00.872Z,96060.74
2018-12-14T20:37:35.896Z,96062.23
2018-12-14T20:40:28.757Z,96065.68
2018-12-14T20:46:06.428Z,96069.56
2018-12-14T20:51:45.936Z,96073.77
2018-12-14T20:54:20.500Z,96071.30
2018-12-14T20:57:08.474Z,96074.23
2018-12-14T20:59:59.112Z,96075.49
2018-12-14T21:02:34.550Z,96080.70
2018-12-14T21:05:15.432Z,96079.27
2018-12-14T21:07:56.026Z,96085.20
2018-12-14T21:10:34.146Z,96084.42
2018-12-14T21:13:08.609Z,96088.96
2018-12-14T21:15:42.992Z,96082.74
2018-12-14T21:18:21.114Z,96087.27
2018-12-14T21:20:59.647Z,96086.31
2018-12-14T21:23:47.307Z,96080.45
2018-12-14T21:26:34.090Z,96086.83
2018-12-14T21:29:16.168Z,96092.34
2018-12-14T21:31:51.362Z,96095.73
2018-12-14T21:37:23.927Z,96086.17
2018-12-14T21:43:01.711Z,96096.83
2018-12-14T21:45:46.926Z,96090.79
2018-12-14T21:48:28.848Z,96091.46
2018-12-14T21:51:08.104Z,96096.06
2018-12-14T21:53:46.886Z,96097.77
2018-12-14T21:56:22.072Z,96094.33
2018-12-14T21:59:08.400Z,96092.41
2018-12-14T22:01:47.220Z,96094.00
2018-12-14T22:07:18.999Z,96093.97
2018-12-14T22:09:53.602Z,96089.52
2018-12-14T22:12:28.541Z,96088.38
2018-12-14T22:15:04.216Z,96090.11
2018-12-14T22:17:38.851Z,96087.41
2018-12-14T22:20:13.372Z,96085.23
2018-12-14T22:22:47.955Z,96085.95
2018-12-14T22:25:29.684Z,96082.11
2018-12-14T22:28:07.462Z,96088.71
2018-12-14T22:30:54.543Z,96086.62
2018-12-14T22:33:35.648Z,96085.90
2018-12-14T22:36:13.246Z,96087.37
2018-12-14T22:38:52.078Z,96087.30
2018-12-14T22:41:30.218Z,96087.86
2018-12-14T22:44:05.914Z,96087.52
2018-12-14T22:46:56.699Z,96086.39
2018-12-14T22:49:31.922Z,96088.05
2018-12-14T22:55:02.425Z,96083.97
2018-12-14T22:57:46.662Z,96086.71
2018-12-14T23:03:19.766Z,96093.81
2018-12-14T23:05:59.802Z,96088.70
2018-12-14T23:08:34.380Z,96086.13
2018-12-14T23:11:09.585Z,96082.20
2018-12-14T23:13:50.816Z,96086.05
2018-12-14T23:16:30.993Z,96080.56
2018-12-14T23:19:18.558Z,96085.77
2018-12-14T23:21:59.707Z,96081.84
2018-12-14T23:24:39.880Z,96080.28
2018-12-14T23:27:27.495Z,96086.05
2018-12-14T23:30:02.000Z,96084.39
2018-12-14T23:32:37.800Z,96086.66
2018-12-14T23:35:18.797Z,96084.94
2018-12-14T23:37:59.503Z,96083.28
2018-12-14T23:40:37.909Z,96079.66
2018-12-14T23:43:15.954Z,96080.53
2018-12-14T23:45:55.838Z,96080.50
2018-12-14T23:48:30.764Z,96082.59
2018-12-14T23:51:18.532Z,96081.56
2018-12-14T23:53:59.139Z,96084.94
2018-12-14T23:56:36.631Z,96088.84
2018-12-14T23:59:15.286Z,96086.66
